Time;durP1;ratioP1;P1;durP2;ratioP2;P2;SDS_P1;SDS_P2;PMS_P1;PMS_P2;Temp;Humidity;BMP_temperature;BMP_pressure;BME280_temperature;BME280_humidity;BME280_pressure;Samples;Min_cycle;Max_cycle;Signal;HPM_P1;HPM_P2
2021/08/23 10:31:51;;;;;;;6.93;6.22;;;;;;;;;;12931914;23;20079;-86
2021/08/23 10:48:46;;;;;;;9.15;7.18;;;;;;;;;;12936938;23;20051;-85
2021/08/23 11:05:42;;;;;;;9.68;7.07;;;;;;;;;;12936306;23;20020;-87
2021/08/23 12:22:25;;;;;;;7.10;6.40;;;;;;;;;;12873939;22;20059;-87
2021/08/23 12:28:30;;;;;;;8.55;7.22;;;;;;;;;;12697194;23;20013;-87
2021/08/23 12:56:53;;;;;;;10.25;7.80;;;;;;;;;;12516165;23;20010;-86
2021/08/23 13:08:02;;;;;;;7.70;6.82;;;;;;;;;;12938751;23;19992;-86
2021/08/23 13:58:28;;;;;;;5.80;4.25;;;;;;;;;;12930992;23;20309;-86
2021/08/23 14:20:50;;;;;;;5.88;3.95;;;;;;;;;;12808899;23;20116;-86
2021/08/23 14:26:17;;;;;;;4.15;2.97;;;;;;;;;;12786444;23;20005;-87
2021/08/23 14:32:15;;;;;;;4.28;3.17;;;;;;;;;;12588228;23;20010;-90
2021/08/23 14:49:16;;;;;;;4.03;3.63;;;;;;;;;;12967744;23;20016;-87
2021/08/23 14:54:25;;;;;;;4.03;3.28;;;;;;;;;;12936946;23;19996;-85
2021/08/23 15:16:40;;;;;;;3.53;3.22;;;;;;;;;;12964386;23;20408;-84
2021/08/23 15:33:34;;;;;;;3.85;2.90;;;;;;;;;;12961835;23;20004;-89
2021/08/23 15:39:04;;;;;;;6.28;2.65;;;;;;;;;;12834884;23;20005;-87
2021/08/23 15:44:07;;;;;;;5.78;2.30;;;;;;;;;;12810901;23;20449;-86
2021/08/23 15:54:58;;;;;;;2.58;1.92;;;;;;;;;;12837654;23;20025;-87
2021/08/23 16:00:12;;;;;;;2.83;2.08;;;;;;;;;;12818577;23;19993;-87
2021/08/23 16:16:57;;;;;;;3.50;2.42;;;;;;;;;;12965253;23;20348;-86
2021/08/23 16:22:05;;;;;;;3.55;2.17;;;;;;;;;;12939154;23;20068;-90
2021/08/23 16:27:06;;;;;;;4.97;2.88;;;;;;;;;;12945981;23;20007;-83
2021/08/23 16:32:07;;;;;;;6.82;3.53;;;;;;;;;;12939148;23;20004;-81
2021/08/23 16:37:08;;;;;;;2.92;2.47;;;;;;;;;;12938582;23;20062;-82
2021/08/23 16:42:09;;;;;;;4.45;2.67;;;;;;;;;;12939468;23;20340;-83
2021/08/23 16:47:10;;;;;;;3.78;2.40;;;;;;;;;;12939558;23;20008;-83
2021/08/23 16:52:11;;;;;;;3.45;2.20;;;;;;;;;;12939746;23;20008;-83
2021/08/23 16:57:12;;;;;;;3.42;2.63;;;;;;;;;;12935829;23;20012;-84
2021/08/23 17:02:13;;;;;;;6.05;4.30;;;;;;;;;;12934052;23;20008;-85
2021/08/23 17:07:25;;;;;;;2.55;2.20;;;;;;;;;;12931881;23;20000;-84
2021/08/23 17:12:26;;;;;;;3.58;2.53;;;;;;;;;;12960030;23;20015;-84
2021/08/23 17:17:27;;;;;;;3.15;2.40;;;;;;;;;;12943909;23;20012;-84
2021/08/23 17:22:30;;;;;;;2.83;2.20;;;;;;;;;;12951504;23;20024;-85
2021/08/23 17:27:34;;;;;;;2.67;2.40;;;;;;;;;;12977219;23;19996;-86
2021/08/23 17:32:38;;;;;;;4.63;2.85;;;;;;;;;;12951245;23;20000;-86
2021/08/23 17:37:39;;;;;;;3.40;2.42;;;;;;;;;;12951376;23;20007;-85
2021/08/23 17:42:43;;;;;;;3.63;2.92;;;;;;;;;;12952826;23;20031;-85
2021/08/23 17:47:44;;;;;;;3.35;2.25;;;;;;;;;;12953273;23;20000;-85
2021/08/23 17:52:46;;;;;;;3.55;2.72;;;;;;;;;;12952681;23;20007;-85
2021/08/23 17:57:47;;;;;;;2.25;1.90;;;;;;;;;;12952139;23;20008;-85
2021/08/23 18:02:48;;;;;;;3.78;2.42;;;;;;;;;;12951741;23;20436;-86
2021/08/23 18:07:49;;;;;;;2.72;2.20;;;;;;;;;;12953216;23;20007;-85
2021/08/23 18:12:50;;;;;;;2.50;2.20;;;;;;;;;;12953029;23;20008;-86
2021/08/23 18:17:52;;;;;;;2.95;2.33;;;;;;;;;;12953106;23;20019;-86
2021/08/23 18:22:53;;;;;;;2.17;1.80;;;;;;;;;;12950993;23;20011;-86
2021/08/23 18:27:53;;;;;;;3.17;2.13;;;;;;;;;;12979138;23;19992;-85
2021/08/23 18:32:54;;;;;;;2.60;2.10;;;;;;;;;;12953507;23;19988;-85
2021/08/23 18:37:56;;;;;;;2.20;1.90;;;;;;;;;;12951124;23;20001;-87
2021/08/23 18:42:59;;;;;;;3.00;1.80;;;;;;;;;;12950593;23;19988;-85
2021/08/23 18:48:00;;;;;;;2.95;2.00;;;;;;;;;;12950353;23;20051;-85
2021/08/23 18:53:01;;;;;;;2.88;2.33;;;;;;;;;;12950804;23;20019;-86
2021/08/23 18:58:02;;;;;;;2.28;1.83;;;;;;;;;;12950075;23;20009;-87
2021/08/23 19:03:03;;;;;;;3.08;2.10;;;;;;;;;;12956524;23;20012;-85
2021/08/23 19:08:04;;;;;;;4.45;2.25;;;;;;;;;;12957740;23;19988;-84
2021/08/23 19:13:05;;;;;;;2.63;2.00;;;;;;;;;;12956342;23;20035;-84
2021/08/23 19:18:07;;;;;;;2.38;1.90;;;;;;;;;;12954831;23;20462;-86
2021/08/23 19:23:08;;;;;;;2.78;2.03;;;;;;;;;;12954822;23;20027;-86
2021/08/23 19:28:09;;;;;;;1.55;1.40;;;;;;;;;;12954868;23;20043;-85
2021/08/23 19:33:10;;;;;;;2.20;1.90;;;;;;;;;;12955766;23;20028;-84
2021/08/23 19:38:11;;;;;;;2.75;2.00;;;;;;;;;;12955462;23;20050;-86
2021/08/23 19:43:12;;;;;;;2.88;1.77;;;;;;;;;;12954059;23;20040;-86
2021/08/23 19:48:13;;;;;;;1.60;1.50;;;;;;;;;;12937912;23;20008;-85
2021/08/23 19:53:15;;;;;;;2.47;1.85;;;;;;;;;;12912075;23;20012;-84
2021/08/23 19:58:18;;;;;;;3.65;2.55;;;;;;;;;;12936871;23;20089;-84
2021/08/23 20:03:20;;;;;;;3.47;2.08;;;;;;;;;;12937318;23;20016;-85
2021/08/23 20:08:21;;;;;;;3.70;2.00;;;;;;;;;;12936927;23;20000;-85
2021/08/23 20:13:22;;;;;;;2.33;1.60;;;;;;;;;;12936300;23;20004;-85
